Brisbane Central, Queensland

8:26 AM AEST on December 19, 2014 (GMT +1000)
Brisbane Inner City | Change Station
CLOSE
Current Station
Personal Weather Station
Location: Highgate Hill, QUEENSLAND
Elevation: 108 ft
Nearby Weather Stations

Elev 108 ft 27.49 °S, 153.01 °E | Updated 5 seconds ago

Mostly Cloudy
Mostly Cloudy
76.7 °F
Feels Like 78 °F
N
4.4
Wind Variable Wind from WNW
Gusts 14.5 mph

Today
High -- | Low -- °F
--% Chance of Precip.
Yesterday
High -- | Low -- °F
Precip. -- in
4:48 AM 6:41 PM
Waning Crescent, 12% visible
Pressure 29.86 in
Visibility 6.2 miles
Clouds Few 800 ft
Mostly Cloudy 25000 ft
Heat Index 78 °F
Dew Point 67 °F
Humidity 73%
Rainfall 0.02 in
Snow Depth Not available.
UV 3 out of 12
Pollen Not available.
Air Quality Not available.
Flu Activity Not available.
METAR YBBN 182200Z 30005KT 9999 FEW008 BKN250 23/20 Q1011 NOSIG

More Conditions Fewer Conditions

Pressure 29.86 in
Visibility 6.2 miles
Clouds Few 800 ft
Mostly Cloudy 25000 ft
Heat Index 78 °F
Dew Point 67 °F
Humidity 73%
Rainfall 0.02 in
Snow Depth Not available.
UV 3 out of 12
Pollen Not available.
Air Quality Not available.
Flu Activity Not available.
METAR YBBN 182200Z 30005KT 9999 FEW008 BKN250 23/20 Q1011 NOSIG

More Conditions Fewer Conditions

10-Day Weather Forecast

Almanac

Astronomy

Dec. 19, 2014 Rise Set
Actual Time
Civil Twilight
Nautical Twilight
Astronomical Twilight
Moon
Length of Visible Light
Length of Day
Tomorrow will be .
, % of the Moon is Illuminated

Today's Extremes

Country Highs Country Lows

Community

WunderPhotos

Upload Photos

1,779,010 photos uploaded!

WunderBlogs® & News

Nearby

Air Quality

  Air Quality AQ Index Pollutant
Not available.

Snow Depth

Station Depth Elevation

Earthquake Activity

City Distance Mag. Time & Date
Minimum magnitude displayed is 2.5.

Coastal Water Temperatures

Place Temperature

Nearby Weather Stations